Aguilares, Texas
Current Conditions -  °F | °C
As of 3:55 PM on Sunday 25 Jan 2015 (Local Time) from KHBV Reporting Station
Clear Clear  
Wind Chill: 71°   Ceiling: Unl
Heat Index: 71°   Visibility: 10mi
Dew Point: 28°   Wind: 14mph
Humidity: 20%   Direction: 330°NNW
Pressure: 30.12"   Gusts: 17mph
Location:  27.4459°N, 99.0184°W
Report Text: KHBV 252155Z AUTO 33012G15KT 10SM CLR 22/M02 A3012 RMK AO2 T02191021
Loading
Personal Weather Stations






























Interactive Weather Map New forecast layout! Learn more

10-Day Weather Forecast

Advertisements
Track Severe Weather on mobile